Station Historical Data
Daily Summary for February 24, 2012 Units:  English    Metric   Both
« Previous Day
Next Day »
Daily Weekly Monthly Yearly Custom
  High: Low: Average:
Temperature: 69.7 °F 33.9 °F 51.5 °F
Dew Point: 61.7 °F 23.4 °F 35 °F
Humidity: 79% 34% 54%
Wind Speed: 25.0mph 0.0mph 8.5mph
Wind Gust: 26.0mph - -
Wind- - West
Pressure: 30.17 in 29.46 in -
Precipitation: 0.00 in    
Historical Graphs
 
 
Tabular Data for February 24, 2012
Time Temperature Dew Point Pressure Wind Wind Speed Wind Gust Humidity Rainfall Rate (Hourly) Conditions
00:00 69.7 °F 60.3 °F 29.46 in SSW 9.0 mph 14.0 mph 72% 0.00 in
00:02 69.7 °F 60.7 °F 29.47 in SSW 11.0 mph 16.0 mph 73% 0.00 in
00:07 69.7 °F 60.7 °F 29.46 in South 9.0 mph 13.0 mph 73% 0.00 in
00:12 69.6 °F 60.6 °F 29.46 in SSE 13.0 mph 16.0 mph 73% 0.00 in
00:17 69.5 °F 60.9 °F 29.46 in SSW 6.0 mph 14.0 mph 74% 0.00 in
00:22 69.4 °F 61.1 °F 29.47 in South 10.0 mph 16.0 mph 75% 0.00 in
00:27 69.4 °F 61.1 °F 29.47 in SSE 6.0 mph 13.0 mph 75% 0.00 in
00:32 69.3 °F 61.0 °F 29.47 in SW 9.0 mph 15.0 mph 75% 0.00 in
00:37 69.3 °F 61.0 °F 29.47 in SW 6.0 mph 13.0 mph 75% 0.00 in
00:42 69.4 °F 61.5 °F 29.47 in South 11.0 mph 14.0 mph 76% 0.00 in
00:47 69.4 °F 61.5 °F 29.47 in SSW 9.0 mph 17.0 mph 76% 0.00 in
00:52 69.4 °F 61.5 °F 29.47 in South 9.0 mph 12.0 mph 76% 0.00 in
00:57 69.4 °F 61.5 °F 29.47 in WSW 16.0 mph 18.0 mph 76% 0.00 in
01:02 69.6 °F 61.7 °F 29.48 in SW 16.0 mph 16.0 mph 76% 0.00 in
01:07 69.4 °F 61.5 °F 29.48 in SW 12.0 mph 16.0 mph 76% 0.00 in
01:12 69.3 °F 61.4 °F 29.48 in SW 10.0 mph 17.0 mph 76% 0.00 in
01:17 69.1 °F 61.6 °F 29.48 in SW 8.0 mph 11.0 mph 77% 0.00 in
01:22 69.1 °F 61.6 °F 29.49 in SSW 10.0 mph 16.0 mph 77% 0.00 in
01:27 68.9 °F 61.4 °F 29.49 in SSW 16.0 mph 17.0 mph 77% 0.00 in
01:32 69.1 °F 61.6 °F 29.50 in SW 11.0 mph 17.0 mph 77% 0.00 in
01:37 69.0 °F 61.5 °F 29.49 in SSW 7.0 mph 11.0 mph 77% 0.00 in
01:42 68.8 °F 61.3 °F 29.49 in WSW 11.0 mph 15.0 mph 77% 0.00 in
01:47 68.8 °F 61.3 °F 29.50 in SW 6.0 mph 13.0 mph 77% 0.00 in
01:52 68.7 °F 61.2 °F 29.50 in SSW 5.0 mph 14.0 mph 77% 0.00 in
01:57 68.6 °F 61.1 °F 29.50 in SW 8.0 mph 16.0 mph 77% 0.00 in
02:02 68.6 °F 61.1 °F 29.51 in SW 8.0 mph 18.0 mph 77% 0.00 in
02:07 68.6 °F 61.1 °F 29.50 in SW 16.0 mph 17.0 mph 77% 0.00 in
02:12 68.7 °F 60.8 °F 29.51 in SSW 11.0 mph 15.0 mph 76% 0.00 in
02:18 68.5 °F 60.6 °F 29.51 in SW 12.0 mph 16.0 mph 76% 0.00 in
02:23 68.2 °F 60.3 °F 29.51 in West 7.0 mph 13.0 mph 76% 0.00 in
02:28 68.0 °F 60.2 °F 29.52 in SW 8.0 mph 13.0 mph 76% 0.00 in
02:33 68.1 °F 59.9 °F 29.52 in WSW 9.0 mph 15.0 mph 75% 0.00 in
02:38 68.0 °F 59.4 °F 29.52 in WSW 16.0 mph 17.0 mph 74% 0.00 in
02:43 67.8 °F 58.5 °F 29.52 in West 16.0 mph 18.0 mph 72% 0.00 in
02:48 67.4 °F 57.3 °F 29.54 in WSW 10.0 mph 13.0 mph 70% 0.00 in
02:53 67.0 °F 54.0 °F 29.54 in West 17.0 mph 17.0 mph 63% 0.00 in
02:58 66.7 °F 53.3 °F 29.54 in WSW 11.0 mph 12.0 mph 62% 0.00 in
03:03 66.1 °F 53.2 °F 29.54 in WNW 6.0 mph 7.0 mph 63% 0.00 in
03:08 65.5 °F 52.2 °F 29.54 in West 8.0 mph 10.0 mph 62% 0.00 in
03:13 65.2 °F 49.1 °F 29.54 in West 5.0 mph 12.0 mph 56% 0.00 in
03:18 65.0 °F 48.9 °F 29.54 in WSW 9.0 mph 12.0 mph 56% 0.00 in
03:23 64.4 °F 47.9 °F 29.54 in WSW 5.0 mph 8.0 mph 55% 0.00 in
03:28 63.8 °F 47.3 °F 29.55 in West 8.0 mph 10.0 mph 55% 0.00 in
03:33 63.6 °F 47.2 °F 29.55 in West 8.0 mph 8.0 mph 55% 0.00 in
03:38 63.3 °F 46.9 °F 29.55 in West 3.0 mph 6.0 mph 55% 0.00 in
03:43 62.8 °F 46.4 °F 29.55 in West 6.0 mph 9.0 mph 55% 0.00 in
03:48 62.7 °F 45.3 °F 29.55 in WNW 5.0 mph 9.0 mph 53% 0.00 in
03:53 62.6 °F 45.2 °F 29.55 in West 4.0 mph 8.0 mph 53% 0.00 in
03:58 62.3 °F 45.5 °F 29.55 in West 3.0 mph 8.0 mph 54% 0.00 in
04:03 61.8 °F 45.0 °F 29.55 in West 5.0 mph 5.0 mph 54% 0.00 in
04:08 61.7 °F 45.4 °F 29.56 in WNW 3.0 mph 9.0 mph 55% 0.00 in
04:13 61.6 °F 45.3 °F 29.56 in WNW 4.0 mph 10.0 mph 55% 0.00 in
04:18 61.2 °F 45.9 °F 29.57 in WSW 8.0 mph 8.0 mph 57% 0.00 in
04:23 60.8 °F 45.5 °F 29.57 in West 6.0 mph 12.0 mph 57% 0.00 in
04:28 60.5 °F 45.2 °F 29.57 in WNW 4.0 mph 12.0 mph 57% 0.00 in
04:33 60.3 °F 45.0 °F 29.58 in WNW 6.0 mph 11.0 mph 57% 0.00 in
04:38 60.0 °F 45.2 °F 29.58 in West 5.0 mph 11.0 mph 58% 0.00 in
04:43 59.7 °F 45.4 °F 29.59 in WNW 6.0 mph 7.0 mph 59% 0.00 in
04:48 59.5 °F 45.2 °F 29.59 in WNW 8.0 mph 10.0 mph 59% 0.00 in
04:54 59.4 °F 45.1 °F 29.59 in West 11.0 mph 15.0 mph 59% 0.00 in
04:59 59.1 °F 44.8 °F 29.59 in WNW 6.0 mph 12.0 mph 59% 0.00 in
05:04 58.6 °F 44.3 °F 29.60 in NW 8.0 mph 12.0 mph 59% 0.00 in
05:09 58.3 °F 44.0 °F 29.60 in WNW 10.0 mph 12.0 mph 59% 0.00 in
05:14 58.1 °F 44.3 °F 29.61 in West 6.0 mph 12.0 mph 60% 0.00 in
05:19 57.9 °F 44.1 °F 29.61 in WNW 8.0 mph 14.0 mph 60% 0.00 in
05:24 57.7 °F 43.9 °F 29.62 in West 6.0 mph 12.0 mph 60% 0.00 in
05:29 57.4 °F 44.1 °F 29.62 in WNW 6.0 mph 11.0 mph 61% 0.00 in
05:34 57.1 °F 43.8 °F 29.62 in WNW 9.0 mph 11.0 mph 61% 0.00 in
05:39 56.8 °F 43.9 °F 29.63 in West 9.0 mph 10.0 mph 62% 0.00 in
05:44 56.7 °F 43.8 °F 29.63 in West 6.0 mph 12.0 mph 62% 0.00 in
05:49 56.5 °F 43.7 °F 29.64 in WSW 12.0 mph 12.0 mph 62% 0.00 in
05:54 56.1 °F 43.3 °F 29.64 in West 5.0 mph 10.0 mph 62% 0.00 in
05:59 56.0 °F 42.8 °F 29.64 in WNW 12.0 mph 16.0 mph 61% 0.00 in
06:04 55.6 °F 42.4 °F 29.64 in WNW 6.0 mph 11.0 mph 61% 0.00 in
06:09 55.5 °F 42.3 °F 29.64 in WNW 6.0 mph 11.0 mph 61% 0.00 in
06:14 55.1 °F 42.3 °F 29.65 in WNW 10.0 mph 14.0 mph 62% 0.00 in
06:19 55.1 °F 41.9 °F 29.64 in WNW 13.0 mph 15.0 mph 61% 0.00 in
06:24 54.8 °F 42.0 °F 29.65 in West 12.0 mph 16.0 mph 62% 0.00 in
06:29 54.7 °F 42.0 °F 29.65 in WNW 10.0 mph 15.0 mph 62% 0.00 in
06:34 54.4 °F 42.1 °F 29.65 in West 7.0 mph 14.0 mph 63% 0.00 in
06:39 54.2 °F 41.9 °F 29.66 in WNW 7.0 mph 10.0 mph 63% 0.00 in
06:44 53.8 °F 41.9 °F 29.66 in West 5.0 mph 7.0 mph 64% 0.00 in
06:49 53.6 °F 41.7 °F 29.67 in WNW 10.0 mph 13.0 mph 64% 0.00 in
06:54 53.3 °F 40.2 °F 29.67 in WNW 10.0 mph 11.0 mph 61% 0.00 in
06:59 53.2 °F 39.7 °F 29.67 in West 11.0 mph 14.0 mph 60% 0.00 in
07:04 53.0 °F 39.1 °F 29.68 in NW 14.0 mph 14.0 mph 59% 0.00 in
07:09 52.8 °F 39.3 °F 29.68 in WNW 4.0 mph 12.0 mph 60% 0.00 in
07:14 52.7 °F 39.2 °F 29.69 in WNW 6.0 mph 13.0 mph 60% 0.00 in
07:19 52.6 °F 39.1 °F 29.69 in SSW 7.0 mph 9.0 mph 60% 0.00 in
07:24 52.6 °F 37.8 °F 29.70 in WNW 10.0 mph 13.0 mph 57% 0.00 in
07:29 52.7 °F 36.1 °F 29.70 in WNW 8.0 mph 14.0 mph 53% 0.00 in
07:34 52.6 °F 35.5 °F 29.70 in NW 13.0 mph 20.0 mph 52% 0.00 in
07:39 52.4 °F 35.3 °F 29.71 in West 9.0 mph 16.0 mph 52% 0.00 in
07:44 52.3 °F 36.2 °F 29.71 in WNW 8.0 mph 19.0 mph 54% 0.00 in
07:49 52.1 °F 36.4 °F 29.70 in WNW 11.0 mph 16.0 mph 55% 0.00 in
07:54 51.9 °F 36.3 °F 29.72 in West 8.0 mph 11.0 mph 55% 0.00 in
07:59 51.8 °F 35.7 °F 29.73 in West 15.0 mph 15.0 mph 54% 0.00 in
08:04 51.7 °F 34.7 °F 29.73 in WNW 10.0 mph 19.0 mph 52% 0.00 in
08:09 51.4 °F 33.9 °F 29.73 in WNW 8.0 mph 21.0 mph 51% 0.00 in
08:14 51.2 °F 33.7 °F 29.74 in West 7.0 mph 16.0 mph 51% 0.00 in
08:20 51.1 °F 33.1 °F 29.74 in WNW 9.0 mph 15.0 mph 50% 0.00 in
08:25 51.0 °F 33.0 °F 29.75 in NW 5.0 mph 15.0 mph 50% 0.00 in
08:30 51.0 °F 29.9 °F 29.75 in WNW 16.0 mph 20.0 mph 44% 0.00 in
08:35 51.0 °F 29.3 °F 29.76 in NNW 12.0 mph 17.0 mph 43% 0.00 in
08:40 50.9 °F 28.6 °F 29.77 in West 19.0 mph 19.0 mph 42% 0.00 in
08:45 50.8 °F 28.0 °F 29.77 in WNW 8.0 mph 16.0 mph 41% 0.00 in
08:50 50.8 °F 27.4 °F 29.77 in WNW 10.0 mph 16.0 mph 40% 0.00 in
08:55 50.8 °F 28.5 °F 29.78 in WNW 10.0 mph 13.0 mph 42% 0.00 in
09:00 50.7 °F 27.9 °F 29.78 in NW 14.0 mph 19.0 mph 41% 0.00 in
09:05 50.5 °F 28.9 °F 29.78 in WNW 10.0 mph 17.0 mph 43% 0.00 in
09:06 50.5 °F 28.3 °F 29.78 in WNW 13.0 mph 17.0 mph 42% 0.00 in
09:11 50.5 °F 29.4 °F 29.78 in West 13.0 mph 15.0 mph 44% 0.00 in
09:16 50.4 °F 29.3 °F 29.79 in West 6.0 mph 14.0 mph 44% 0.00 in
09:21 50.4 °F 30.4 °F 29.79 in WNW 7.0 mph 11.0 mph 46% 0.00 in
09:26 50.1 °F 30.1 °F 29.80 in WNW 11.0 mph 16.0 mph 46% 0.00 in
09:31 49.8 °F 30.9 °F 29.80 in NW 13.0 mph 13.0 mph 48% 0.00 in
09:36 49.5 °F 31.6 °F 29.80 in WNW 9.0 mph 16.0 mph 50% 0.00 in
09:41 49.4 °F 31.6 °F 29.80 in West 11.0 mph 21.0 mph 50% 0.00 in
09:46 49.2 °F 32.3 °F 29.81 in WNW 10.0 mph 13.0 mph 52% 0.00 in
09:52 49.0 °F 31.7 °F 29.81 in WNW 11.0 mph 18.0 mph 51% 0.00 in
09:57 48.7 °F 31.4 °F 29.81 in WNW 12.0 mph 17.0 mph 51% 0.00 in
10:02 48.7 °F 31.4 °F 29.82 in WNW 7.0 mph 13.0 mph 51% 0.00 in
10:07 48.8 °F 30.5 °F 29.82 in West 8.0 mph 12.0 mph 49% 0.00 in
10:12 49.1 °F 29.2 °F 29.81 in NW 6.0 mph 14.0 mph 46% 0.00 in
10:17 49.2 °F 27.7 °F 29.81 in WNW 10.0 mph 14.0 mph 43% 0.00 in
10:22 49.3 °F 27.8 °F 29.81 in West 8.0 mph 14.0 mph 43% 0.00 in
10:27 49.5 °F 27.4 °F 29.82 in WSW 6.0 mph 16.0 mph 42% 0.00 in
10:32 49.4 °F 26.1 °F 29.81 in WNW 15.0 mph 19.0 mph 40% 0.00 in
10:37 49.3 °F 26.0 °F 29.82 in West 6.0 mph 17.0 mph 40% 0.00 in
10:42 49.4 °F 26.1 °F 29.82 in West 9.0 mph 16.0 mph 40% 0.00 in
10:47 49.4 °F 26.7 °F 29.82 in West 16.0 mph 17.0 mph 41% 0.00 in
10:52 49.7 °F 28.1 °F 29.83 in NW 4.0 mph 11.0 mph 43% 0.00 in
10:57 50.1 °F 27.9 °F 29.83 in West 8.0 mph 14.0 mph 42% 0.00 in
11:02 50.6 °F 28.4 °F 29.83 in WNW 13.0 mph 17.0 mph 42% 0.00 in
11:07 50.9 °F 28.6 °F 29.83 in West 12.0 mph 16.0 mph 42% 0.00 in
11:12 50.9 °F 27.5 °F 29.83 in WNW 18.0 mph 22.0 mph 40% 0.00 in
11:17 51.4 °F 29.1 °F 29.84 in West 17.0 mph 19.0 mph 42% 0.00 in
11:22 52.2 °F 27.4 °F 29.84 in West 8.0 mph 22.0 mph 38% 0.00 in
11:27 52.1 °F 25.3 °F 29.85 in West 14.0 mph 24.0 mph 35% 0.00 in
11:32 51.5 °F 24.8 °F 29.84 in West 12.0 mph 23.0 mph 35% 0.00 in
11:37 51.3 °F 23.9 °F 29.85 in WNW 13.0 mph 23.0 mph 34% 0.00 in
11:42 50.7 °F 23.4 °F 29.86 in WNW 20.0 mph 23.0 mph 34% 0.00 in
11:47 50.4 °F 25.8 °F 29.86 in WNW 10.0 mph 18.0 mph 38% 0.00 in
11:52 50.2 °F 26.2 °F 29.86 in WNW 8.0 mph 18.0 mph 39% 0.00 in
11:57 50.3 °F 26.3 °F 29.86 in WNW 7.0 mph 18.0 mph 39% 0.00 in
12:02 51.3 °F 27.2 °F 29.87 in NW 14.0 mph 21.0 mph 39% 0.00 in
12:07 51.2 °F 25.8 °F 29.87 in West 25.0 mph 25.0 mph 37% 0.00 in
12:12 51.1 °F 25.8 °F 29.88 in West 17.0 mph 23.0 mph 37% 0.00 in
12:17 50.8 °F 26.1 °F 29.88 in WNW 16.0 mph 23.0 mph 38% 0.00 in
12:23 50.3 °F 26.3 °F 29.88 in NW 19.0 mph 25.0 mph 39% 0.00 in
12:28 50.3 °F 26.3 °F 29.89 in WNW 13.0 mph 24.0 mph 39% 0.00 in
12:33 50.4 °F 26.4 °F 29.88 in WNW 16.0 mph 19.0 mph 39% 0.00 in
12:38 50.4 °F 27.0 °F 29.88 in WNW 15.0 mph 18.0 mph 40% 0.00 in
12:43 50.2 °F 28.0 °F 29.89 in West 7.0 mph 23.0 mph 42% 0.00 in
12:48 50.4 °F 28.2 °F 29.89 in West 9.0 mph 20.0 mph 42% 0.00 in
12:53 50.3 °F 28.1 °F 29.89 in WNW 17.0 mph 24.0 mph 42% 0.00 in
12:58 50.2 °F 29.7 °F 29.89 in West 16.0 mph 18.0 mph 45% 0.00 in
13:03 50.8 °F 29.7 °F 29.90 in NW 12.0 mph 21.0 mph 44% 0.00 in
13:08 50.9 °F 29.2 °F 29.90 in WNW 9.0 mph 16.0 mph 43% 0.00 in
13:13 51.2 °F 30.0 °F 29.90 in WNW 12.0 mph 20.0 mph 44% 0.00 in
13:18 51.4 °F 29.1 °F 29.90 in WNW 16.0 mph 19.0 mph 42% 0.00 in
13:23 51.6 °F 28.1 °F 29.90 in WNW 24.0 mph 24.0 mph 40% 0.00 in
13:28 50.5 °F 28.9 °F 29.90 in WNW 13.0 mph 19.0 mph 43% 0.00 in
13:33 50.8 °F 29.1 °F 29.90 in West 11.0 mph 24.0 mph 43% 0.00 in
13:38 51.7 °F 29.4 °F 29.90 in WNW 17.0 mph 21.0 mph 42% 0.00 in
13:43 50.7 °F 29.6 °F 29.90 in NW 11.0 mph 22.0 mph 44% 0.00 in
13:48 50.1 °F 27.3 °F 29.90 in West 14.0 mph 19.0 mph 41% 0.00 in
13:53 49.9 °F 27.7 °F 29.90 in West 13.0 mph 25.0 mph 42% 0.00 in
13:58 50.1 °F 28.5 °F 29.90 in NW 11.0 mph 19.0 mph 43% 0.00 in
14:03 50.3 °F 28.7 °F 29.91 in West 15.0 mph 19.0 mph 43% 0.00 in
14:08 51.1 °F 30.0 °F 29.91 in WNW 8.0 mph 20.0 mph 44% 0.00 in
14:13 51.1 °F 28.8 °F 29.91 in West 14.0 mph 22.0 mph 42% 0.00 in
14:18 50.3 °F 28.7 °F 29.92 in NW 10.0 mph 26.0 mph 43% 0.00 in
14:23 50.5 °F 28.9 °F 29.92 in NW 8.0 mph 22.0 mph 43% 0.00 in
14:28 50.8 °F 29.1 °F 29.92 in NW 19.0 mph 24.0 mph 43% 0.00 in
14:33 50.8 °F 29.7 °F 29.92 in WNW 9.0 mph 18.0 mph 44% 0.00 in
14:38 51.4 °F 30.8 °F 29.92 in West 12.0 mph 12.0 mph 45% 0.00 in
14:43 50.5 °F 28.3 °F 29.93 in WNW 12.0 mph 23.0 mph 42% 0.00 in
14:48 50.5 °F 28.3 °F 29.93 in NW 16.0 mph 18.0 mph 42% 0.00 in
14:53 50.3 °F 28.1 °F 29.94 in WNW 15.0 mph 19.0 mph 42% 0.00 in
14:58 49.9 °F 28.9 °F 29.94 in NW 7.0 mph 19.0 mph 44% 0.00 in
15:03 50.4 °F 29.3 °F 29.94 in WNW 13.0 mph 19.0 mph 44% 0.00 in
15:08 50.4 °F 28.2 °F 29.94 in West 12.0 mph 25.0 mph 42% 0.00 in
15:13 49.8 °F 27.6 °F 29.95 in WNW 12.0 mph 21.0 mph 42% 0.00 in
15:18 49.4 °F 27.9 °F 29.95 in WNW 16.0 mph 21.0 mph 43% 0.00 in
15:24 49.7 °F 28.7 °F 29.95 in WNW 10.0 mph 13.0 mph 44% 0.00 in
15:29 50.4 °F 28.8 °F 29.95 in WNW 10.0 mph 15.0 mph 43% 0.00 in
15:34 51.0 °F 28.7 °F 29.95 in WNW 13.0 mph 18.0 mph 42% 0.00 in
15:39 50.7 °F 28.5 °F 29.95 in West 9.0 mph 18.0 mph 42% 0.00 in
15:44 50.6 °F 28.4 °F 29.96 in WNW 20.0 mph 20.0 mph 42% 0.00 in
15:49 50.5 °F 29.4 °F 29.96 in WNW 9.0 mph 15.0 mph 44% 0.00 in
15:54 51.1 °F 28.8 °F 29.96 in West 18.0 mph 18.0 mph 42% 0.00 in
15:59 50.3 °F 29.8 °F 29.97 in NW 11.0 mph 20.0 mph 45% 0.00 in
16:04 50.4 °F 29.9 °F 29.97 in West 15.0 mph 16.0 mph 45% 0.00 in
16:09 50.3 °F 29.8 °F 29.97 in WNW 12.0 mph 17.0 mph 45% 0.00 in
16:14 50.5 °F 29.4 °F 29.97 in NW 12.0 mph 13.0 mph 44% 0.00 in
16:19 50.0 °F 28.4 °F 29.98 in NW 9.0 mph 17.0 mph 43% 0.00 in
16:24 49.9 °F 30.0 °F 29.97 in NW 14.0 mph 23.0 mph 46% 0.00 in
16:29 50.3 °F 28.7 °F 29.98 in NW 13.0 mph 21.0 mph 43% 0.00 in
16:34 50.2 °F 28.0 °F 29.98 in North 9.0 mph 19.0 mph 42% 0.00 in
16:39 50.5 °F 28.9 °F 29.98 in NNW 9.0 mph 18.0 mph 43% 0.00 in
16:44 50.8 °F 28.5 °F 29.99 in WNW 9.0 mph 13.0 mph 42% 0.00 in
16:49 50.7 °F 27.9 °F 29.99 in NW 6.0 mph 18.0 mph 41% 0.00 in
16:54 50.5 °F 28.9 °F 29.99 in West 14.0 mph 17.0 mph 43% 0.00 in
16:59 50.2 °F 27.4 °F 30.00 in WNW 8.0 mph 18.0 mph 41% 0.00 in
17:04 49.6 °F 27.5 °F 30.00 in WNW 18.0 mph 21.0 mph 42% 0.00 in
17:09 49.3 °F 27.2 °F 30.00 in NW 20.0 mph 20.0 mph 42% 0.00 in
17:14 48.1 °F 26.7 °F 30.01 in NW 14.0 mph 19.0 mph 43% 0.00 in
17:19 47.2 °F 26.4 °F 30.01 in WNW 13.0 mph 21.0 mph 44% 0.00 in
17:24 46.9 °F 26.7 °F 30.01 in NW 7.0 mph 16.0 mph 45% 0.00 in
17:29 46.8 °F 26.6 °F 30.01 in NW 13.0 mph 17.0 mph 45% 0.00 in
17:34 46.5 °F 25.8 °F 30.02 in NW 15.0 mph 20.0 mph 44% 0.00 in
17:39 46.5 °F 25.8 °F 30.02 in WNW 19.0 mph 19.0 mph 44% 0.00 in
17:44 46.6 °F 25.9 °F 30.03 in West 10.0 mph 12.0 mph 44% 0.00 in
17:49 46.8 °F 26.6 °F 30.03 in West 9.0 mph 9.0 mph 45% 0.00 in
17:54 47.0 °F 27.3 °F 30.03 in West 6.0 mph 12.0 mph 46% 0.00 in
17:59 47.0 °F 27.3 °F 30.03 in West 7.0 mph 15.0 mph 46% 0.00 in
18:04 46.9 °F 27.2 °F 30.03 in WNW 11.0 mph 16.0 mph 46% 0.00 in
18:09 46.6 °F 26.4 °F 30.03 in WNW 6.0 mph 19.0 mph 45% 0.00 in
18:14 46.1 °F 25.4 °F 30.03 in NW 8.0 mph 22.0 mph 44% 0.00 in
18:19 45.7 °F 25.6 °F 30.04 in WNW 9.0 mph 18.0 mph 45% 0.00 in
18:24 45.5 °F 25.9 °F 30.04 in WNW 15.0 mph 18.0 mph 46% 0.00 in
18:29 45.2 °F 25.7 °F 30.05 in NW 6.0 mph 13.0 mph 46% 0.00 in
18:34 44.9 °F 25.9 °F 30.05 in NW 5.0 mph 10.0 mph 47% 0.00 in
18:39 44.6 °F 25.6 °F 30.05 in WNW 7.0 mph 14.0 mph 47% 0.00 in
18:44 44.5 °F 25.0 °F 30.06 in NW 8.0 mph 15.0 mph 46% 0.00 in
18:49 44.5 °F 25.0 °F 30.06 in NW 4.0 mph 11.0 mph 46% 0.00 in
18:54 44.2 °F 25.3 °F 30.06 in WNW 9.0 mph 12.0 mph 47% 0.00 in
18:59 44.1 °F 25.2 °F 30.06 in WNW 6.0 mph 15.0 mph 47% 0.00 in
19:04 44.0 °F 25.6 °F 30.06 in NW 7.0 mph 11.0 mph 48% 0.00 in
19:09 43.8 °F 25.4 °F 30.07 in WNW 9.0 mph 11.0 mph 48% 0.00 in
19:14 43.7 °F 25.8 °F 30.07 in WNW 5.0 mph 8.0 mph 49% 0.00 in
19:19 43.4 °F 26.0 °F 30.07 in WNW 3.0 mph 11.0 mph 50% 0.00 in
19:24 43.1 °F 25.7 °F 30.08 in WNW 5.0 mph 8.0 mph 50% 0.00 in
19:29 42.8 °F 25.9 °F 30.08 in WNW 4.0 mph 5.0 mph 51% 0.00 in
19:34 42.5 °F 26.1 °F 30.09 in NW 3.0 mph 5.0 mph 52% 0.00 in
19:40 42.4 °F 26.0 °F 30.09 in WNW 3.0 mph 8.0 mph 52% 0.00 in
19:45 42.5 °F 26.1 °F 30.09 in WNW 2.0 mph 8.0 mph 52% 0.00 in
19:50 42.4 °F 26.0 °F 30.10 in NW 5.0 mph 8.0 mph 52% 0.00 in
19:55 42.2 °F 26.3 °F 30.09 in WNW 5.0 mph 6.0 mph 53% 0.00 in
20:00 42.0 °F 26.1 °F 30.10 in WNW 4.0 mph 6.0 mph 53% 0.00 in
20:05 41.9 °F 26.5 °F 30.10 in NW 3.0 mph 7.0 mph 54% 0.00 in
20:10 41.5 °F 26.5 °F 30.10 in NW 3.0 mph 5.0 mph 55% 0.00 in
20:15 41.3 °F 26.4 °F 30.10 in NW 3.0 mph 6.0 mph 55% 0.00 in
20:20 41.4 °F 26.5 °F 30.11 in WNW 4.0 mph 6.0 mph 55% 0.00 in
20:25 41.4 °F 26.5 °F 30.11 in WNW 2.0 mph 4.0 mph 55% 0.00 in
20:30 41.0 °F 26.1 °F 30.12 in Calm   3.0 mph 55% 0.00 in
20:35 40.9 °F 26.0 °F 30.12 in WNW 2.0 mph 6.0 mph 55% 0.00 in
20:36 40.9 °F 26.0 °F 30.12 in NW 4.0 mph 7.0 mph 55% 0.00 in
20:41 40.7 °F 26.2 °F 30.12 in NW 2.0 mph 2.0 mph 56% 0.00 in
20:46 40.5 °F 26.0 °F 30.12 in NW 1.0 mph 2.0 mph 56% 0.00 in
20:51 40.4 °F 26.4 °F 30.12 in NW 1.0 mph 2.0 mph 57% 0.00 in
20:56 40.2 °F 26.2 °F 30.12 in NW 1.0 mph 2.0 mph 57% 0.00 in
21:01 40.1 °F 26.1 °F 30.12 in NW 2.0 mph 2.0 mph 57% 0.00 in
21:06 40.0 °F 26.0 °F 30.12 in Calm   2.0 mph 57% 0.00 in
21:11 39.9 °F 25.9 °F 30.12 in Calm     57% 0.00 in
21:16 39.8 °F 25.8 °F 30.13 in Calm   1.0 mph 57% 0.00 in
21:21 39.7 °F 26.1 °F 30.12 in NNW 1.0 mph 2.0 mph 58% 0.00 in
21:26 39.7 °F 26.1 °F 30.13 in Calm   1.0 mph 58% 0.00 in
21:32 39.4 °F 25.9 °F 30.13 in Calm   1.0 mph 58% 0.00 in
21:37 39.2 °F 25.7 °F 30.13 in Calm     58% 0.00 in
21:42 39.0 °F 25.9 °F 30.13 in Calm     59% 0.00 in
21:47 38.4 °F 25.3 °F 30.14 in Calm     59% 0.00 in
21:52 38.0 °F 25.8 °F 30.14 in Calm     61% 0.00 in
21:57 37.5 °F 25.3 °F 30.14 in Calm     61% 0.00 in
22:02 36.8 °F 25.0 °F 30.14 in Calm     62% 0.00 in
22:07 36.5 °F 25.5 °F 30.14 in Calm     64% 0.00 in
22:12 36.7 °F 25.7 °F 30.14 in Calm     64% 0.00 in
22:17 36.5 °F 25.5 °F 30.15 in Calm     64% 0.00 in
22:22 36.1 °F 25.9 °F 30.15 in Calm     66% 0.00 in
22:27 35.9 °F 26.0 °F 30.15 in Calm     67% 0.00 in
22:32 35.8 °F 25.9 °F 30.16 in Calm     67% 0.00 in
22:38 35.7 °F 25.8 °F 30.16 in Calm     67% 0.00 in
22:43 35.6 °F 25.7 °F 30.16 in Calm     67% 0.00 in
22:48 35.4 °F 25.5 °F 30.16 in Calm     67% 0.00 in
22:53 35.2 °F 25.7 °F 30.16 in Calm     68% 0.00 in
22:58 35.0 °F 25.5 °F 30.16 in Calm     68% 0.00 in
23:03 35.4 °F 25.5 °F 30.17 in Calm     67% 0.00 in
23:08 35.7 °F 25.8 °F 30.17 in Calm     67% 0.00 in
23:13 35.5 °F 25.6 °F 30.17 in Calm     67% 0.00 in
23:18 35.0 °F 25.9 °F 30.17 in Calm     69% 0.00 in
23:23 34.6 °F 27.5 °F 30.17 in Calm     75% 0.00 in
23:28 34.3 °F 28.5 °F 30.17 in Calm     79% 0.00 in
23:33 34.0 °F 28.2 °F 30.17 in Calm     79% 0.00 in
23:38 33.9 °F 26.8 °F 30.17 in Calm     75% 0.00 in
23:43 34.3 °F 26.6 °F 30.17 in Calm     73% 0.00 in
23:48 34.5 °F 26.1 °F 30.17 in Calm     71% 0.00 in
23:53 34.7 °F 25.9 °F 30.17 in Calm     70% 0.00 in
23:58 34.8 °F 25.7 °F 30.17 in Calm     69% 0.00 in
Compliments of Weather Underground